Cochise — WDD8952 — position and weather

sailwx.info

Track history (hours):
 
Tides and Currents Weather Stations Pressure Air Temp Water Temp Dewpoint Dewpoint Depression Visibility Wind Speed Wind Dir Waves Ship Positions

Cochise

Owner: Sause Bros, Coos Bay, OR. More information available from US FCC via Universal Licensing System and Coast Guard Vessel Documentation Center.

Last reported at 2017-Nov-24 01:51 UTC. Time now 2017-Nov-24 05:28 UTC.
Position N 36°17' W 122°28'.

Length 32 m; draft 4.6 m.

Type: Towing. MMSI: 367304990.

Date/timePositionNaut miles runAvg speedWind from/ knotsBaromVisibWave heightAir tempDewpointWater temp
2017-Nov-24 01:51N 36°17' W 122°28'3 7.9
2017-Nov-24 01:30N 36°14' W 122°26'4 8.0
2017-Nov-24 01:00N 36°10' W 122°24'4 8.3
2017-Nov-24 00:30N 36°07' W 122°22'4 8.6
2017-Nov-24 00:00N 36°03' W 122°19'4 8.4
2017-Nov-23 23:30N 35°59' W 122°17'4 8.2
2017-Nov-23 22:59N 35°56' W 122°14'4 8.2
2017-Nov-23 22:29N 35°52' W 122°11'4 8.0
2017-Nov-23 22:00N 35°49' W 122°09'6 8.1
2017-Nov-23 21:18N 35°44' W 122°05'2 8.2
2017-Nov-23 21:00N 35°42' W 122°04'4 8.1
2017-Nov-23 20:30N 35°38' W 122°01'4 8.2
2017-Nov-23 20:00N 35°35' W 121°58'4 8.3
2017-Nov-23 19:30N 35°32' W 121°56'4 8.9
2017-Nov-23 19:00N 35°28' W 121°53'4 9.0
2017-Nov-23 18:30N 35°24' W 121°50'5 9.1
2017-Nov-23 18:00N 35°20' W 121°47'4 8.8
2017-Nov-23 17:30N 35°16' W 121°45'4 8.6
2017-Nov-23 17:00N 35°13' W 121°42'4 8.4
2017-Nov-23 16:30N 35°09' W 121°39'4 8.5
2017-Nov-23 16:01N 35°05' W 121°37'4 8.8
2017-Nov-23 15:30N 35°01' W 121°34'4 8.8
2017-Nov-23 15:00N 34°58' W 121°31'18 8.8
2017-Nov-23 12:57N 34°42' W 121°20'4 8.7
2017-Nov-23 12:26N 34°38' W 121°17'4 8.4
2017-Nov-23 11:56N 34°35' W 121°14'4 8.5
2017-Nov-23 11:29N 34°31' W 121°12'4 8.5
2017-Nov-23 10:58N 34°28' W 121°09'4 8.3
2017-Nov-23 10:30N 34°24' W 121°07'4 8.3
2017-Nov-23 10:00N 34°21' W 121°04'11 8.4
2017-Nov-23 08:44N 34°12' W 120°58'2 8.7
2017-Nov-23 08:31N 34°10' W 120°56'4 8.4
2017-Nov-23 08:01N 34°06' W 120°54'5 8.4
2017-Nov-23 07:28N 34°02' W 120°51'4 8.2
2017-Nov-23 06:59N 34°00' W 120°47'5 8.4
2017-Nov-23 06:21N 33°58' W 120°41'3 7.6
2017-Nov-23 06:00N 33°56' W 120°39'4 8.1
2017-Nov-23 05:30N 33°54' W 120°34'3 7.0
2017-Nov-23 05:00N 33°53' W 120°31'4 8.5
2017-Nov-23 04:30N 33°51' W 120°26'4 8.5
2017-Nov-23 03:59N 33°48' W 120°22'4 8.5
2017-Nov-23 03:30N 33°46' W 120°18'4 8.6
2017-Nov-23 03:00N 33°44' W 120°13'4 8.2
2017-Nov-23 02:30N 33°43' W 120°08'4 7.9
2017-Nov-23 02:00N 33°43' W 120°04'4 7.8
2017-Nov-23 01:31N 33°43' W 119°59'4 8.7
2017-Nov-23 01:01N 33°43' W 119°54'4 8.5
2017-Nov-23 00:31N 33°43' W 119°49'4 8.4
2017-Nov-22 23:59N 33°42' W 119°43'7 9.0
2017-Nov-22 23:14N 33°42' W 119°35'2 9.0
2017-Nov-22 22:58N 33°42' W 119°32'4 8.8
2017-Nov-22 22:30N 33°42' W 119°27'4 8.7
2017-Nov-22 21:59N 33°42' W 119°22'4 8.9
2017-Nov-22 21:31N 33°42' W 119°17'5 9.0
2017-Nov-22 21:00N 33°42' W 119°11'4 9.0
2017-Nov-22 20:30N 33°41' W 119°06'5 9.0
2017-Nov-22 20:00N 33°41' W 119°01'5 9.1
2017-Nov-22 19:30N 33°41' W 118°55'  
2017-Nov-19 17:26N 33°46' W 118°13'0 0.1
2017-Nov-19 17:01N 33°46' W 118°13'0 0.6
2017-Nov-19 16:31N 33°46' W 118°13'2 2.6
2017-Nov-19 15:53N 33°44' W 118°13'5 4.3
2017-Nov-19 14:40N 33°39' W 118°11'1 6.6
2017-Nov-19 14:31N 33°39' W 118°12'3 6.5
2017-Nov-19 14:00N 33°37' W 118°15'3 6.5
2017-Nov-19 13:29N 33°36' W 118°19'3 7.2
2017-Nov-19 13:00N 33°36' W 118°23'4 7.1
2017-Nov-19 12:24N 33°36' W 118°28'3 7.0
2017-Nov-19 11:57N 33°37' W 118°32'3 6.9
2017-Nov-19 11:30N 33°37' W 118°36'3 6.1
2017-Nov-19 11:01N 33°37' W 118°40'3 6.6
2017-Nov-19 10:30N 33°37' W 118°44'3 6.7
2017-Nov-19 10:01N 33°37' W 118°48'3 6.8
2017-Nov-19 09:30N 33°38' W 118°52'3 6.7
2017-Nov-19 09:00N 33°38' W 118°56'3 6.7
2017-Nov-19 08:30N 33°38' W 118°60'3 6.7
2017-Nov-19 08:01N 33°38' W 119°04'3 6.8
2017-Nov-19 07:30N 33°38' W 119°08'3 6.8
2017-Nov-19 07:00N 33°39' W 119°12'3 6.9
2017-Nov-19 06:30N 33°39' W 119°16'3 6.6
2017-Nov-19 06:00N 33°39' W 119°20'3 6.3
2017-Nov-19 05:30N 33°39' W 119°24'3 6.4
2017-Nov-19 05:00N 33°40' W 119°28'3 6.1
2017-Nov-19 04:30N 33°40' W 119°31'3 6.4
2017-Nov-19 04:01N 33°40' W 119°35'3 6.6
2017-Nov-19 03:30N 33°40' W 119°39'3 6.8
2017-Nov-19 03:00N 33°41' W 119°43'3 6.7
2017-Nov-19 02:30N 33°41' W 119°47'3 6.8
2017-Nov-19 02:00N 33°41' W 119°51'3 6.7
2017-Nov-19 01:31N 33°42' W 119°55'3 6.6
2017-Nov-19 01:00N 33°42' W 119°59'4 7.0
2017-Nov-19 00:29N 33°43' W 120°03'4 7.3
2017-Nov-19 00:00N 33°43' W 120°08'4 7.1
2017-Nov-18 23:30N 33°43' W 120°12'3 6.7
2017-Nov-18 23:00N 33°43' W 120°16'3 6.2
2017-Nov-18 22:31N 33°44' W 120°20'3 6.2
2017-Nov-18 22:01N 33°44' W 120°23'3 6.6
2017-Nov-18 21:30N 33°45' W 120°27'4 7.6
2017-Nov-18 20:59N 33°45' W 120°32'4 7.8
2017-Nov-18 20:30N 33°46' W 120°36'3 7.0
2017-Nov-18 20:00N 33°48' W 120°40'4 7.8
2017-Nov-18 19:30N 33°51' W 120°42'4 7.8
2017-Nov-18 19:00N 33°54' W 120°45'4 8.0
2017-Nov-18 18:30N 33°58' W 120°47'4 8.3
2017-Nov-18 18:00N 34°01' W 120°50'4 8.5
2017-Nov-18 17:30N 34°05' W 120°53'4 8.4
2017-Nov-18 17:00N 34°08' W 120°56'4 8.3
2017-Nov-18 16:31N 34°12' W 120°58'4 8.1
2017-Nov-18 16:01N 34°15' W 121°01'4 8.1
2017-Nov-18 15:31N 34°19' W 121°04'4 8.1
2017-Nov-18 15:01N 34°22' W 121°07'4 7.7
2017-Nov-18 14:31N 34°25' W 121°09'4 8.0
2017-Nov-18 14:01N 34°28' W 121°12'4 8.1
2017-Nov-18 13:31N 34°32' W 121°14'4 8.2
2017-Nov-18 13:01N 34°35' W 121°17'4 7.9
2017-Nov-18 12:30N 34°39' W 121°20'4 7.8
2017-Nov-18 12:00N 34°42' W 121°23'4 7.7
2017-Nov-18 11:30N 34°45' W 121°25'4 7.8
2017-Nov-18 11:01N 34°48' W 121°28'4 7.7
2017-Nov-18 10:28N 34°52' W 121°30'4 7.7
2017-Nov-18 10:01N 34°55' W 121°33'4 7.8
2017-Nov-18 09:31N 34°58' W 121°35'4 7.8
2017-Nov-18 09:00N 35°01' W 121°38'4 7.7
2017-Nov-18 08:31N 35°05' W 121°40'4 7.7
2017-Nov-18 08:00N 35°08' W 121°43'8 7.9
2017-Nov-18 06:56N 35°15' W 121°49'4 8.1
2017-Nov-18 06:24N 35°18' W 121°52'3 8.0
2017-Nov-18 06:00N 35°21' W 121°54'4 8.0
2017-Nov-18 05:31N 35°24' W 121°56'4 8.0
2017-Nov-18 05:01N 35°28' W 121°59'4 8.2
2017-Nov-18 04:31N 35°31' W 122°02'4 8.3
2017-Nov-18 04:01N 35°35' W 122°05'4 8.1
2017-Nov-18 03:30N 35°38' W 122°08'4 8.0
2017-Nov-18 03:00N 35°41' W 122°10'4 7.8
2017-Nov-18 02:31N 35°45' W 122°13'4 7.8
2017-Nov-18 02:01N 35°48' W 122°15'4 7.9
2017-Nov-18 01:30N 35°51' W 122°18'4 8.1
2017-Nov-18 01:01N 35°55' W 122°21'4 8.5
2017-Nov-18 00:31N 35°58' W 122°24'4 8.4
2017-Nov-18 00:01N 36°02' W 122°26'4 8.6
2017-Nov-17 23:30N 36°05' W 122°29'4 8.7
2017-Nov-17 23:01N 36°09' W 122°32'4 8.7
2017-Nov-17 22:31N 36°13' W 122°34'4 8.4
2017-Nov-17 22:01N 36°17' W 122°36'4 8.2
2017-Nov-17 21:31N 36°21' W 122°38'4 7.7
2017-Nov-17 21:00N 36°24' W 122°40'4 7.7
2017-Nov-17 20:31N 36°28' W 122°42'4 8.2
2017-Nov-17 20:01N 36°32' W 122°44'5 8.4
2017-Nov-17 19:28N 36°36' W 122°44'4 8.0
2017-Nov-17 18:59N 36°40' W 122°44'4 7.9
2017-Nov-17 18:30N 36°44' W 122°44'19 8.0
2017-Nov-17 16:11N 37°02' W 122°44'2 7.6
2017-Nov-17 15:57N 37°04' W 122°44'4 7.7
2017-Nov-17 15:29N 37°08' W 122°44'4 7.7
2017-Nov-17 15:00N 37°11' W 122°44'4 8.4
2017-Nov-17 14:30N 37°15' W 122°44'4 8.5
2017-Nov-17 14:01N 37°20' W 122°44'4 8.6
2017-Nov-17 13:30N 37°24' W 122°44'4 8.2
2017-Nov-17 13:01N 37°28' W 122°44'4 7.8
2017-Nov-17 12:31N 37°32' W 122°44'4 7.9
2017-Nov-17 12:01N 37°36' W 122°44'4 7.6
2017-Nov-17 11:30N 37°40' W 122°43'4 7.5
2017-Nov-17 11:01N 37°43' W 122°42'4 7.3
2017-Nov-17 10:30N 37°46' W 122°38'4 7.9
2017-Nov-17 10:00N 37°47' W 122°34'5 9.5
2017-Nov-17 09:31N 37°49' W 122°28'4 7.1
2017-Nov-17 09:01N 37°52' W 122°25'2 4.8
2017-Nov-17 08:31N 37°54' W 122°26'1 1.7
2017-Nov-17 08:00N 37°55' W 122°25'1 1.7
2017-Nov-17 07:29N 37°55' W 122°25'0 0.0
2017-Nov-17 07:00N 37°55' W 122°25'0 0.5
2017-Nov-17 06:30N 37°55' W 122°25'0 0.0
2017-Nov-17 05:45N 37°55' W 122°25'0 0.0
2017-Nov-17 05:27N 37°55' W 122°25'0 0.0
2017-Nov-17 04:57N 37°55' W 122°25'0 0.0
2017-Nov-17 02:57N 37°55' W 122°25'0 0.0
2017-Nov-17 02:30N 37°55' W 122°25'0 0.0
2017-Nov-17 02:00N 37°55' W 122°25'0 0.0
2017-Nov-17 01:30N 37°55' W 122°25'0 0.0
2017-Nov-17 01:00N 37°55' W 122°25'0 0.0
2017-Nov-17 00:30N 37°55' W 122°25'0 0.0
2017-Nov-16 23:57N 37°55' W 122°25'0 0.0
2017-Nov-16 23:30N 37°55' W 122°25'0 0.0
2017-Nov-16 22:57N 37°55' W 122°25'0 0.0
2017-Nov-16 22:24N 37°55' W 122°25'0 0.0
2017-Nov-16 22:00N 37°55' W 122°25'0 0.0
2017-Nov-16 21:30N 37°55' W 122°25'0 0.0
2017-Nov-16 21:00N 37°55' W 122°25'0 0.0
2017-Nov-16 20:27N 37°55' W 122°25'0 0.0
2017-Nov-16 19:57N 37°55' W 122°25'0 0.0
2017-Nov-16 19:30N 37°55' W 122°25'0 0.0
2017-Nov-16 19:00N 37°55' W 122°25'0 0.0
2017-Nov-16 18:30N 37°55' W 122°25'0 0.0
2017-Nov-16 18:00N 37°55' W 122°25'0 0.0
2017-Nov-16 17:30N 37°55' W 122°25'0 0.0
2017-Nov-16 17:00N 37°55' W 122°25'0 0.0
2017-Nov-16 16:30N 37°55' W 122°25'0 0.0
2017-Nov-16 16:00N 37°55' W 122°25'0 0.0
2017-Nov-16 15:30N 37°55' W 122°25'0 0.0
2017-Nov-16 15:00N 37°55' W 122°25'0 0.0
2017-Nov-16 14:27N 37°55' W 122°25'0 0.0
2017-Nov-16 14:00N 37°55' W 122°25'0 0.0
2017-Nov-16 13:30N 37°55' W 122°25'0 0.0
2017-Nov-16 13:00N 37°55' W 122°25'0 0.0
2017-Nov-16 12:30N 37°55' W 122°25'0 0.0
2017-Nov-16 12:00N 37°55' W 122°25'0 0.0
2017-Nov-16 11:30N 37°55' W 122°25'0 0.0
2017-Nov-16 11:00N 37°55' W 122°25'0 0.0
2017-Nov-16 10:30N 37°55' W 122°25'0 0.0
2017-Nov-16 10:00N 37°55' W 122°25'0 0.0
2017-Nov-16 09:30N 37°55' W 122°25'0 0.0
2017-Nov-16 09:00N 37°55' W 122°25'0 0.0
2017-Nov-16 08:30N 37°55' W 122°25'0 0.0
2017-Nov-16 07:57N 37°55' W 122°25'0 0.0
2017-Nov-16 07:30N 37°55' W 122°25'0 0.0
2017-Nov-16 06:57N 37°55' W 122°25'0 0.0
2017-Nov-16 06:27N 37°55' W 122°25'0 0.0
2017-Nov-16 06:00N 37°55' W 122°25'0 0.0
2017-Nov-16 05:30N 37°55' W 122°25'0 0.0
2017-Nov-16 05:00N 37°55' W 122°25'0 0.0
2017-Nov-16 04:30N 37°55' W 122°25'0 0.0
2017-Nov-16 04:00N 37°55' W 122°25'0 0.0
2017-Nov-16 03:30N 37°55' W 122°25'0 0.0
2017-Nov-16 02:57N 37°55' W 122°25'0 0.0
2017-Nov-16 02:30N 37°55' W 122°25'0 0.0
2017-Nov-16 02:00N 37°55' W 122°25'0 0.0
2017-Nov-16 01:27N 37°55' W 122°25'0 0.0
2017-Nov-16 01:00N 37°55' W 122°25'0 0.0
2017-Nov-16 00:27N 37°55' W 122°25'0 0.0
2017-Nov-16 00:00N 37°55' W 122°25'0 0.0
2017-Nov-15 23:27N 37°55' W 122°25'0 0.0
2017-Nov-15 23:00N 37°55' W 122°25'0 0.0
2017-Nov-15 22:30N 37°55' W 122°25'0 0.0
2017-Nov-15 21:57N 37°55' W 122°25'0 0.0
2017-Nov-15 21:27N 37°55' W 122°25'0 0.0
2017-Nov-15 20:57N 37°55' W 122°25'0 0.0
2017-Nov-15 20:30N 37°55' W 122°25'0 0.5
2017-Nov-15 20:00N 37°55' W 122°25'0 0.4
2017-Nov-15 19:29N 37°55' W 122°25'1 1.7
2017-Nov-15 19:00N 37°55' W 122°26'0 0.0
2017-Nov-15 18:28N 37°55' W 122°26'0 0.0
2017-Nov-15 17:58N 37°55' W 122°26'0 0.0
2017-Nov-15 17:28N 37°55' W 122°26'0 0.1
2017-Nov-15 16:58N 37°55' W 122°26'0 0.1
2017-Nov-15 16:25N 37°55' W 122°26'0 0.1
2017-Nov-15 15:55N 37°55' W 122°26'0 0.0
2017-Nov-15 15:30N 37°55' W 122°26'3 6.6
2017-Nov-15 15:00N 37°54' W 122°22'1 1.7
2017-Nov-15 14:30N 37°55' W 122°22'0 0.0
2017-Nov-15 14:00N 37°55' W 122°22'0 0.0
2017-Nov-15 13:21N 37°55' W 122°22'0 0.0
2017-Nov-15 13:00N 37°55' W 122°22'0 0.0
2017-Nov-15 12:30N 37°55' W 122°22'0 0.0
2017-Nov-15 11:54N 37°55' W 122°22'0 0.0
2017-Nov-15 11:30N 37°55' W 122°22'0 0.0
2017-Nov-15 11:00N 37°55' W 122°22'0 0.0
2017-Nov-15 10:30N 37°55' W 122°22'0 0.0
2017-Nov-15 10:00N 37°55' W 122°22'0 0.0
2017-Nov-15 09:30N 37°55' W 122°22'0 0.0
2017-Nov-15 09:00N 37°55' W 122°22'0 0.0
2017-Nov-15 08:27N 37°55' W 122°22'0 0.0
2017-Nov-15 08:00N 37°55' W 122°22'0 0.0
2017-Nov-15 07:30N 37°55' W 122°22'0 0.0
2017-Nov-15 06:51N 37°55' W 122°22'0 0.0
2017-Nov-15 06:27N 37°55' W 122°22'0 0.0
2017-Nov-15 05:57N 37°55' W 122°22'0 0.0
2017-Nov-15 05:30N 37°55' W 122°22'0 0.0
2017-Nov-15 05:00N 37°55' W 122°22'0 0.0
2017-Nov-15 04:30N 37°55' W 122°22'0 0.0
2017-Nov-15 03:57N 37°55' W 122°22'0 0.0
2017-Nov-15 03:27N 37°55' W 122°22'0 0.0
2017-Nov-15 03:00N 37°55' W 122°22'0 0.7
2017-Nov-15 02:31N 37°55' W 122°22'0 0.1
2017-Nov-15 01:59N 37°55' W 122°22'2 3.9
2017-Nov-15 01:24N 37°55' W 122°25'0 0.0
2017-Nov-15 00:44N 37°55' W 122°25'0 0.0
2017-Nov-14 23:20N 37°55' W 122°25'1 2.3
2017-Nov-14 23:01N 37°55' W 122°24'2 3.8
2017-Nov-14 22:28N 37°55' W 122°22'0 0.0
2017-Nov-14 21:58N 37°55' W 122°22'0 0.0
2017-Nov-14 21:28N 37°55' W 122°22'0 0.0
2017-Nov-14 20:55N 37°55' W 122°22'0 0.0
2017-Nov-14 20:22N 37°55' W 122°22'0 0.0
2017-Nov-14 19:55N 37°55' W 122°22'0 0.0
2017-Nov-14 19:28N 37°55' W 122°22'0 0.0
2017-Nov-14 18:55N 37°55' W 122°22'0 0.0
2017-Nov-14 18:25N 37°55' W 122°22'0 0.0
2017-Nov-14 17:58N 37°55' W 122°22'0 0.0
2017-Nov-14 17:28N 37°55' W 122°22'0 0.0
2017-Nov-14 16:58N 37°55' W 122°22'0 0.0
2017-Nov-14 16:28N 37°55' W 122°22'0 0.0
2017-Nov-14 15:58N 37°55' W 122°22'0 0.0
2017-Nov-14 15:25N 37°55' W 122°22'0 0.0
2017-Nov-14 14:58N 37°55' W 122°22'0 0.0
2017-Nov-14 14:25N 37°55' W 122°22'0 0.0
2017-Nov-14 13:58N 37°55' W 122°22'0 0.0
2017-Nov-14 13:28N 37°55' W 122°22'0 0.0
2017-Nov-14 12:58N 37°55' W 122°22'0 0.0
2017-Nov-14 12:25N 37°55' W 122°22'0 0.0
2017-Nov-14 11:58N 37°55' W 122°22'0 0.0
2017-Nov-14 11:28N 37°55' W 122°22'0 0.0
2017-Nov-14 10:58N 37°55' W 122°22'0 0.0
2017-Nov-14 10:28N 37°55' W 122°22'0 0.0
2017-Nov-14 09:52N 37°55' W 122°22'0 0.0
2017-Nov-14 09:28N 37°55' W 122°22'0 0.0
2017-Nov-14 08:49N 37°55' W 122°22'0 0.0
2017-Nov-14 08:19N 37°55' W 122°22'0 0.0
2017-Nov-14 07:55N 37°55' W 122°22'0 0.0
2017-Nov-14 07:28N 37°55' W 122°22'0 0.0
2017-Nov-14 06:55N 37°55' W 122°22'0 0.0
2017-Nov-14 06:28N 37°55' W 122°22'0 0.0
2017-Nov-14 05:52N 37°55' W 122°22'0 0.0
2017-Nov-14 05:28N 37°55' W 122°22'0 0.0
2017-Nov-14 04:52N 37°55' W 122°22'0 0.0
2017-Nov-14 04:25N 37°55' W 122°22'0 0.0
2017-Nov-14 03:58N 37°55' W 122°22'0 0.0
2017-Nov-14 03:25N 37°55' W 122°22'0 0.0
2017-Nov-14 02:55N 37°55' W 122°22'0 0.0
2017-Nov-14 02:25N 37°55' W 122°22'0 0.0
2017-Nov-14 01:55N 37°55' W 122°22'  
Track history (hours):
 
Tides and Currents Weather Stations Pressure Air Temp Water Temp Dewpoint Dewpoint Depression Visibility Wind Speed Wind Dir Waves Ship Positions

Cochise

Owner: Sause Bros, Coos Bay, OR. More information available from US FCC via Universal Licensing System and Coast Guard Vessel Documentation Center.

Last reported at 2017-Nov-24 01:51 UTC. Time now 2017-Nov-24 05:28 UTC.
Position N 36°17' W 122°28'.

Length 32 m; draft 4.6 m.

Type: Towing. MMSI: 367304990.

Date/timePositionNaut miles runAvg speedWind from/ knotsBaromVisibWave heightAir tempDewpointWater temp
2017-Nov-24 01:51N 36°17' W 122°28'3 7.9
2017-Nov-24 01:30N 36°14' W 122°26'4 8.0
2017-Nov-24 01:00N 36°10' W 122°24'4 8.3
2017-Nov-24 00:30N 36°07' W 122°22'4 8.6
2017-Nov-24 00:00N 36°03' W 122°19'4 8.4
2017-Nov-23 23:30N 35°59' W 122°17'4 8.2
2017-Nov-23 22:59N 35°56' W 122°14'4 8.2
2017-Nov-23 22:29N 35°52' W 122°11'4 8.0
2017-Nov-23 22:00N 35°49' W 122°09'6 8.1
2017-Nov-23 21:18N 35°44' W 122°05'2 8.2
2017-Nov-23 21:00N 35°42' W 122°04'4 8.1
2017-Nov-23 20:30N 35°38' W 122°01'4 8.2
2017-Nov-23 20:00N 35°35' W 121°58'4 8.3
2017-Nov-23 19:30N 35°32' W 121°56'4 8.9
2017-Nov-23 19:00N 35°28' W 121°53'4 9.0
2017-Nov-23 18:30N 35°24' W 121°50'5 9.1
2017-Nov-23 18:00N 35°20' W 121°47'4 8.8
2017-Nov-23 17:30N 35°16' W 121°45'4 8.6
2017-Nov-23 17:00N 35°13' W 121°42'4 8.4
2017-Nov-23 16:30N 35°09' W 121°39'4 8.5
2017-Nov-23 16:01N 35°05' W 121°37'4 8.8
2017-Nov-23 15:30N 35°01' W 121°34'4 8.8
2017-Nov-23 15:00N 34°58' W 121°31'18 8.8
2017-Nov-23 12:57N 34°42' W 121°20'4 8.7
2017-Nov-23 12:26N 34°38' W 121°17'4 8.4
2017-Nov-23 11:56N 34°35' W 121°14'4 8.5
2017-Nov-23 11:29N 34°31' W 121°12'4 8.5
2017-Nov-23 10:58N 34°28' W 121°09'4 8.3
2017-Nov-23 10:30N 34°24' W 121°07'4 8.3
2017-Nov-23 10:00N 34°21' W 121°04'11 8.4
2017-Nov-23 08:44N 34°12' W 120°58'2 8.7
2017-Nov-23 08:31N 34°10' W 120°56'4 8.4
2017-Nov-23 08:01N 34°06' W 120°54'5 8.4
2017-Nov-23 07:28N 34°02' W 120°51'4 8.2
2017-Nov-23 06:59N 34°00' W 120°47'5 8.4
2017-Nov-23 06:21N 33°58' W 120°41'3 7.6
2017-Nov-23 06:00N 33°56' W 120°39'4 8.1
2017-Nov-23 05:30N 33°54' W 120°34'3 7.0
2017-Nov-23 05:00N 33°53' W 120°31'4 8.5
2017-Nov-23 04:30N 33°51' W 120°26'4 8.5
2017-Nov-23 03:59N 33°48' W 120°22'4 8.5
2017-Nov-23 03:30N 33°46' W 120°18'4 8.6
2017-Nov-23 03:00N 33°44' W 120°13'4 8.2
2017-Nov-23 02:30N 33°43' W 120°08'4 7.9
2017-Nov-23 02:00N 33°43' W 120°04'4 7.8
2017-Nov-23 01:31N 33°43' W 119°59'4 8.7
2017-Nov-23 01:01N 33°43' W 119°54'4 8.5
2017-Nov-23 00:31N 33°43' W 119°49'4 8.4
2017-Nov-22 23:59N 33°42' W 119°43'7 9.0
2017-Nov-22 23:14N 33°42' W 119°35'2 9.0
2017-Nov-22 22:58N 33°42' W 119°32'4 8.8
2017-Nov-22 22:30N 33°42' W 119°27'4 8.7
2017-Nov-22 21:59N 33°42' W 119°22'4 8.9
2017-Nov-22 21:31N 33°42' W 119°17'5 9.0
2017-Nov-22 21:00N 33°42' W 119°11'4 9.0
2017-Nov-22 20:30N 33°41' W 119°06'5 9.0
2017-Nov-22 20:00N 33°41' W 119°01'5 9.1
2017-Nov-22 19:30N 33°41' W 118°55'  
2017-Nov-19 17:26N 33°46' W 118°13'0 0.1
2017-Nov-19 17:01N 33°46' W 118°13'0 0.6
2017-Nov-19 16:31N 33°46' W 118°13'2 2.6
2017-Nov-19 15:53N 33°44' W 118°13'5 4.3
2017-Nov-19 14:40N 33°39' W 118°11'1 6.6
2017-Nov-19 14:31N 33°39' W 118°12'3 6.5
2017-Nov-19 14:00N 33°37' W 118°15'3 6.5
2017-Nov-19 13:29N 33°36' W 118°19'3 7.2
2017-Nov-19 13:00N 33°36' W 118°23'4 7.1
2017-Nov-19 12:24N 33°36' W 118°28'3 7.0
2017-Nov-19 11:57N 33°37' W 118°32'3 6.9
2017-Nov-19 11:30N 33°37' W 118°36'3 6.1
2017-Nov-19 11:01N 33°37' W 118°40'3 6.6
2017-Nov-19 10:30N 33°37' W 118°44'3 6.7
2017-Nov-19 10:01N 33°37' W 118°48'3 6.8
2017-Nov-19 09:30N 33°38' W 118°52'3 6.7
2017-Nov-19 09:00N 33°38' W 118°56'3 6.7
2017-Nov-19 08:30N 33°38' W 118°60'3 6.7
2017-Nov-19 08:01N 33°38' W 119°04'3 6.8
2017-Nov-19 07:30N 33°38' W 119°08'3 6.8
2017-Nov-19 07:00N 33°39' W 119°12'3 6.9
2017-Nov-19 06:30N 33°39' W 119°16'3 6.6
2017-Nov-19 06:00N 33°39' W 119°20'3 6.3
2017-Nov-19 05:30N 33°39' W 119°24'3 6.4
2017-Nov-19 05:00N 33°40' W 119°28'3 6.1
2017-Nov-19 04:30N 33°40' W 119°31'3 6.4
2017-Nov-19 04:01N 33°40' W 119°35'3 6.6
2017-Nov-19 03:30N 33°40' W 119°39'3 6.8
2017-Nov-19 03:00N 33°41' W 119°43'3 6.7
2017-Nov-19 02:30N 33°41' W 119°47'3 6.8
2017-Nov-19 02:00N 33°41' W 119°51'3 6.7
2017-Nov-19 01:31N 33°42' W 119°55'3 6.6
2017-Nov-19 01:00N 33°42' W 119°59'4 7.0
2017-Nov-19 00:29N 33°43' W 120°03'4 7.3
2017-Nov-19 00:00N 33°43' W 120°08'4 7.1
2017-Nov-18 23:30N 33°43' W 120°12'3 6.7
2017-Nov-18 23:00N 33°43' W 120°16'3 6.2
2017-Nov-18 22:31N 33°44' W 120°20'3 6.2
2017-Nov-18 22:01N 33°44' W 120°23'3 6.6
2017-Nov-18 21:30N 33°45' W 120°27'4 7.6
2017-Nov-18 20:59N 33°45' W 120°32'4 7.8
2017-Nov-18 20:30N 33°46' W 120°36'3 7.0
2017-Nov-18 20:00N 33°48' W 120°40'4 7.8
2017-Nov-18 19:30N 33°51' W 120°42'4 7.8
2017-Nov-18 19:00N 33°54' W 120°45'4 8.0
2017-Nov-18 18:30N 33°58' W 120°47'4 8.3
2017-Nov-18 18:00N 34°01' W 120°50'4 8.5
2017-Nov-18 17:30N 34°05' W 120°53'4 8.4
2017-Nov-18 17:00N 34°08' W 120°56'4 8.3
2017-Nov-18 16:31N 34°12' W 120°58'4 8.1
2017-Nov-18 16:01N 34°15' W 121°01'4 8.1
2017-Nov-18 15:31N 34°19' W 121°04'4 8.1
2017-Nov-18 15:01N 34°22' W 121°07'4 7.7
2017-Nov-18 14:31N 34°25' W 121°09'4 8.0
2017-Nov-18 14:01N 34°28' W 121°12'4 8.1
2017-Nov-18 13:31N 34°32' W 121°14'4 8.2
2017-Nov-18 13:01N 34°35' W 121°17'4 7.9
2017-Nov-18 12:30N 34°39' W 121°20'4 7.8
2017-Nov-18 12:00N 34°42' W 121°23'4 7.7
2017-Nov-18 11:30N 34°45' W 121°25'4 7.8
2017-Nov-18 11:01N 34°48' W 121°28'4 7.7
2017-Nov-18 10:28N 34°52' W 121°30'4 7.7
2017-Nov-18 10:01N 34°55' W 121°33'4 7.8
2017-Nov-18 09:31N 34°58' W 121°35'4 7.8
2017-Nov-18 09:00N 35°01' W 121°38'4 7.7
2017-Nov-18 08:31N 35°05' W 121°40'4 7.7
2017-Nov-18 08:00N 35°08' W 121°43'8 7.9
2017-Nov-18 06:56N 35°15' W 121°49'4 8.1
2017-Nov-18 06:24N 35°18' W 121°52'3 8.0
2017-Nov-18 06:00N 35°21' W 121°54'4 8.0
2017-Nov-18 05:31N 35°24' W 121°56'4 8.0
2017-Nov-18 05:01N 35°28' W 121°59'4 8.2
2017-Nov-18 04:31N 35°31' W 122°02'4 8.3
2017-Nov-18 04:01N 35°35' W 122°05'4 8.1
2017-Nov-18 03:30N 35°38' W 122°08'4 8.0
2017-Nov-18 03:00N 35°41' W 122°10'4 7.8
2017-Nov-18 02:31N 35°45' W 122°13'4 7.8
2017-Nov-18 02:01N 35°48' W 122°15'4 7.9
2017-Nov-18 01:30N 35°51' W 122°18'4 8.1
2017-Nov-18 01:01N 35°55' W 122°21'4 8.5
2017-Nov-18 00:31N 35°58' W 122°24'4 8.4
2017-Nov-18 00:01N 36°02' W 122°26'4 8.6
2017-Nov-17 23:30N 36°05' W 122°29'4 8.7
2017-Nov-17 23:01N 36°09' W 122°32'4 8.7
2017-Nov-17 22:31N 36°13' W 122°34'4 8.4
2017-Nov-17 22:01N 36°17' W 122°36'4 8.2
2017-Nov-17 21:31N 36°21' W 122°38'4 7.7
2017-Nov-17 21:00N 36°24' W 122°40'4 7.7
2017-Nov-17 20:31N 36°28' W 122°42'4 8.2
2017-Nov-17 20:01N 36°32' W 122°44'5 8.4
2017-Nov-17 19:28N 36°36' W 122°44'4 8.0
2017-Nov-17 18:59N 36°40' W 122°44'4 7.9
2017-Nov-17 18:30N 36°44' W 122°44'19 8.0
2017-Nov-17 16:11N 37°02' W 122°44'2 7.6
2017-Nov-17 15:57N 37°04' W 122°44'4 7.7
2017-Nov-17 15:29N 37°08' W 122°44'4 7.7
2017-Nov-17 15:00N 37°11' W 122°44'4 8.4
2017-Nov-17 14:30N 37°15' W 122°44'4 8.5
2017-Nov-17 14:01N 37°20' W 122°44'4 8.6
2017-Nov-17 13:30N 37°24' W 122°44'4 8.2
2017-Nov-17 13:01N 37°28' W 122°44'4 7.8
2017-Nov-17 12:31N 37°32' W 122°44'4 7.9
2017-Nov-17 12:01N 37°36' W 122°44'4 7.6
2017-Nov-17 11:30N 37°40' W 122°43'4 7.5
2017-Nov-17 11:01N 37°43' W 122°42'4 7.3
2017-Nov-17 10:30N 37°46' W 122°38'4 7.9
2017-Nov-17 10:00N 37°47' W 122°34'5 9.5
2017-Nov-17 09:31N 37°49' W 122°28'4 7.1
2017-Nov-17 09:01N 37°52' W 122°25'2 4.8
2017-Nov-17 08:31N 37°54' W 122°26'1 1.7
2017-Nov-17 08:00N 37°55' W 122°25'1 1.7
2017-Nov-17 07:29N 37°55' W 122°25'0 0.0
2017-Nov-17 07:00N 37°55' W 122°25'0 0.5
2017-Nov-17 06:30N 37°55' W 122°25'0 0.0
2017-Nov-17 05:45N 37°55' W 122°25'0 0.0
2017-Nov-17 05:27N 37°55' W 122°25'0 0.0
2017-Nov-17 04:57N 37°55' W 122°25'0 0.0
2017-Nov-17 02:57N 37°55' W 122°25'0 0.0
2017-Nov-17 02:30N 37°55' W 122°25'0 0.0
2017-Nov-17 02:00N 37°55' W 122°25'0 0.0
2017-Nov-17 01:30N 37°55' W 122°25'0 0.0
2017-Nov-17 01:00N 37°55' W 122°25'0 0.0
2017-Nov-17 00:30N 37°55' W 122°25'0 0.0
2017-Nov-16 23:57N 37°55' W 122°25'0 0.0
2017-Nov-16 23:30N 37°55' W 122°25'0 0.0
2017-Nov-16 22:57N 37°55' W 122°25'0 0.0
2017-Nov-16 22:24N 37°55' W 122°25'0 0.0
2017-Nov-16 22:00N 37°55' W 122°25'0 0.0
2017-Nov-16 21:30N 37°55' W 122°25'0 0.0
2017-Nov-16 21:00N 37°55' W 122°25'0 0.0
2017-Nov-16 20:27N 37°55' W 122°25'0 0.0
2017-Nov-16 19:57N 37°55' W 122°25'0 0.0
2017-Nov-16 19:30N 37°55' W 122°25'0 0.0
2017-Nov-16 19:00N 37°55' W 122°25'0 0.0
2017-Nov-16 18:30N 37°55' W 122°25'0 0.0
2017-Nov-16 18:00N 37°55' W 122°25'0 0.0
2017-Nov-16 17:30N 37°55' W 122°25'0 0.0
2017-Nov-16 17:00N 37°55' W 122°25'0 0.0
2017-Nov-16 16:30N 37°55' W 122°25'0 0.0
2017-Nov-16 16:00N 37°55' W 122°25'0 0.0
2017-Nov-16 15:30N 37°55' W 122°25'0 0.0
2017-Nov-16 15:00N 37°55' W 122°25'0 0.0
2017-Nov-16 14:27N 37°55' W 122°25'0 0.0
2017-Nov-16 14:00N 37°55' W 122°25'0 0.0
2017-Nov-16 13:30N 37°55' W 122°25'0 0.0
2017-Nov-16 13:00N 37°55' W 122°25'0 0.0
2017-Nov-16 12:30N 37°55' W 122°25'0 0.0
2017-Nov-16 12:00N 37°55' W 122°25'0 0.0
2017-Nov-16 11:30N 37°55' W 122°25'0 0.0
2017-Nov-16 11:00N 37°55' W 122°25'0 0.0
2017-Nov-16 10:30N 37°55' W 122°25'0 0.0
2017-Nov-16 10:00N 37°55' W 122°25'0 0.0
2017-Nov-16 09:30N 37°55' W 122°25'0 0.0
2017-Nov-16 09:00N 37°55' W 122°25'0 0.0
2017-Nov-16 08:30N 37°55' W 122°25'0 0.0
2017-Nov-16 07:57N 37°55' W 122°25'0 0.0
2017-Nov-16 07:30N 37°55' W 122°25'0 0.0
2017-Nov-16 06:57N 37°55' W 122°25'0 0.0
2017-Nov-16 06:27N 37°55' W 122°25'0 0.0
2017-Nov-16 06:00N 37°55' W 122°25'0 0.0
2017-Nov-16 05:30N 37°55' W 122°25'0 0.0
2017-Nov-16 05:00N 37°55' W 122°25'0 0.0
2017-Nov-16 04:30N 37°55' W 122°25'0 0.0
2017-Nov-16 04:00N 37°55' W 122°25'0 0.0
2017-Nov-16 03:30N 37°55' W 122°25'0 0.0
2017-Nov-16 02:57N 37°55' W 122°25'0 0.0
2017-Nov-16 02:30N 37°55' W 122°25'0 0.0
2017-Nov-16 02:00N 37°55' W 122°25'0 0.0
2017-Nov-16 01:27N 37°55' W 122°25'0 0.0
2017-Nov-16 01:00N 37°55' W 122°25'0 0.0
2017-Nov-16 00:27N 37°55' W 122°25'0 0.0
2017-Nov-16 00:00N 37°55' W 122°25'0 0.0
2017-Nov-15 23:27N 37°55' W 122°25'0 0.0
2017-Nov-15 23:00N 37°55' W 122°25'0 0.0
2017-Nov-15 22:30N 37°55' W 122°25'0 0.0
2017-Nov-15 21:57N 37°55' W 122°25'0 0.0
2017-Nov-15 21:27N 37°55' W 122°25'0 0.0
2017-Nov-15 20:57N 37°55' W 122°25'0 0.0
2017-Nov-15 20:30N 37°55' W 122°25'0 0.5
2017-Nov-15 20:00N 37°55' W 122°25'0 0.4
2017-Nov-15 19:29N 37°55' W 122°25'1 1.7
2017-Nov-15 19:00N 37°55' W 122°26'0 0.0
2017-Nov-15 18:28N 37°55' W 122°26'0 0.0
2017-Nov-15 17:58N 37°55' W 122°26'0 0.0
2017-Nov-15 17:28N 37°55' W 122°26'0 0.1
2017-Nov-15 16:58N 37°55' W 122°26'0 0.1
2017-Nov-15 16:25N 37°55' W 122°26'0 0.1
2017-Nov-15 15:55N 37°55' W 122°26'0 0.0
2017-Nov-15 15:30N 37°55' W 122°26'3 6.6
2017-Nov-15 15:00N 37°54' W 122°22'1 1.7
2017-Nov-15 14:30N 37°55' W 122°22'0 0.0
2017-Nov-15 14:00N 37°55' W 122°22'0 0.0
2017-Nov-15 13:21N 37°55' W 122°22'0 0.0
2017-Nov-15 13:00N 37°55' W 122°22'0 0.0
2017-Nov-15 12:30N 37°55' W 122°22'0 0.0
2017-Nov-15 11:54N 37°55' W 122°22'0 0.0
2017-Nov-15 11:30N 37°55' W 122°22'0 0.0
2017-Nov-15 11:00N 37°55' W 122°22'0 0.0
2017-Nov-15 10:30N 37°55' W 122°22'0 0.0
2017-Nov-15 10:00N 37°55' W 122°22'0 0.0
2017-Nov-15 09:30N 37°55' W 122°22'0 0.0
2017-Nov-15 09:00N 37°55' W 122°22'0 0.0
2017-Nov-15 08:27N 37°55' W 122°22'0 0.0
2017-Nov-15 08:00N 37°55' W 122°22'0 0.0
2017-Nov-15 07:30N 37°55' W 122°22'0 0.0
2017-Nov-15 06:51N 37°55' W 122°22'0 0.0
2017-Nov-15 06:27N 37°55' W 122°22'0 0.0
2017-Nov-15 05:57N 37°55' W 122°22'0 0.0
2017-Nov-15 05:30N 37°55' W 122°22'0 0.0
2017-Nov-15 05:00N 37°55' W 122°22'0 0.0
2017-Nov-15 04:30N 37°55' W 122°22'0 0.0
2017-Nov-15 03:57N 37°55' W 122°22'0 0.0
2017-Nov-15 03:27N 37°55' W 122°22'0 0.0
2017-Nov-15 03:00N 37°55' W 122°22'0 0.7
2017-Nov-15 02:31N 37°55' W 122°22'0 0.1
2017-Nov-15 01:59N 37°55' W 122°22'2 3.9
2017-Nov-15 01:24N 37°55' W 122°25'0 0.0
2017-Nov-15 00:44N 37°55' W 122°25'0 0.0
2017-Nov-14 23:20N 37°55' W 122°25'1 2.3
2017-Nov-14 23:01N 37°55' W 122°24'2 3.8
2017-Nov-14 22:28N 37°55' W 122°22'0 0.0
2017-Nov-14 21:58N 37°55' W 122°22'0 0.0
2017-Nov-14 21:28N 37°55' W 122°22'0 0.0
2017-Nov-14 20:55N 37°55' W 122°22'0 0.0
2017-Nov-14 20:22N 37°55' W 122°22'0 0.0
2017-Nov-14 19:55N 37°55' W 122°22'0 0.0
2017-Nov-14 19:28N 37°55' W 122°22'0 0.0
2017-Nov-14 18:55N 37°55' W 122°22'0 0.0
2017-Nov-14 18:25N 37°55' W 122°22'0 0.0
2017-Nov-14 17:58N 37°55' W 122°22'0 0.0
2017-Nov-14 17:28N 37°55' W 122°22'0 0.0
2017-Nov-14 16:58N 37°55' W 122°22'0 0.0
2017-Nov-14 16:28N 37°55' W 122°22'0 0.0
2017-Nov-14 15:58N 37°55' W 122°22'0 0.0
2017-Nov-14 15:25N 37°55' W 122°22'0 0.0
2017-Nov-14 14:58N 37°55' W 122°22'0 0.0
2017-Nov-14 14:25N 37°55' W 122°22'0 0.0
2017-Nov-14 13:58N 37°55' W 122°22'0 0.0
2017-Nov-14 13:28N 37°55' W 122°22'0 0.0
2017-Nov-14 12:58N 37°55' W 122°22'0 0.0
2017-Nov-14 12:25N 37°55' W 122°22'0 0.0
2017-Nov-14 11:58N 37°55' W 122°22'0 0.0
2017-Nov-14 11:28N 37°55' W 122°22'0 0.0
2017-Nov-14 10:58N 37°55' W 122°22'0 0.0
2017-Nov-14 10:28N 37°55' W 122°22'0 0.0
2017-Nov-14 09:52N 37°55' W 122°22'0 0.0
2017-Nov-14 09:28N 37°55' W 122°22'0 0.0
2017-Nov-14 08:49N 37°55' W 122°22'0 0.0
2017-Nov-14 08:19N 37°55' W 122°22'0 0.0
2017-Nov-14 07:55N 37°55' W 122°22'0 0.0
2017-Nov-14 07:28N 37°55' W 122°22'0 0.0
2017-Nov-14 06:55N 37°55' W 122°22'0 0.0
2017-Nov-14 06:28N 37°55' W 122°22'0 0.0
2017-Nov-14 05:52N 37°55' W 122°22'0 0.0
2017-Nov-14 05:28N 37°55' W 122°22'0 0.0
2017-Nov-14 04:52N 37°55' W 122°22'0 0.0
2017-Nov-14 04:25N 37°55' W 122°22'0 0.0
2017-Nov-14 03:58N 37°55' W 122°22'0 0.0
2017-Nov-14 03:25N 37°55' W 122°22'0 0.0
2017-Nov-14 02:55N 37°55' W 122°22'0 0.0
2017-Nov-14 02:25N 37°55' W 122°22'0 0.0
2017-Nov-14 01:55N 37°55' W 122°22'  

Dump ship's entire track history